Time;durP1;ratioP1;P1;durP2;ratioP2;P2;SDS_P1;SDS_P2;PMS_P1;PMS_P2;Temp;Humidity;BMP_temperature;BMP_pressure;BME280_temperature;BME280_humidity;BME280_pressure;Samples;Min_cycle;Max_cycle;Signal;HPM_P1;HPM_P2
2021/10/02 00:45:00;;;;;;;4.45;3.10;;;;;;;;;;4999592;28;20179;-82
2021/10/02 00:47:27;;;;;;;7.25;3.50;;;;;;;;;;4999135;28;20188;-82
2021/10/02 00:49:55;;;;;;;4.32;3.28;;;;;;;;;;4995954;28;20607;-83
2021/10/02 00:52:22;;;;;;;6.90;4.05;;;;;;;;;;5001805;28;20431;-83
2021/10/02 00:54:48;;;;;;;8.63;4.35;;;;;;;;;;5000029;28;20167;-82
2021/10/02 00:57:15;;;;;;;6.65;3.70;;;;;;;;;;5001926;28;20245;-83
2021/10/02 00:59:41;;;;;;;5.43;3.60;;;;;;;;;;5001012;28;20214;-82
2021/10/02 01:02:19;;;;;;;6.55;4.03;;;;;;;;;;5000366;28;20248;-83
2021/10/02 01:04:45;;;;;;;5.35;3.53;;;;;;;;;;4995151;28;20256;-82
2021/10/02 01:07:24;;;;;;;5.37;4.00;;;;;;;;;;5005598;28;20174;-83
2021/10/02 01:10:01;;;;;;;7.85;4.03;;;;;;;;;;4993522;28;20447;-82
2021/10/02 01:12:50;;;;;;;5.65;4.25;;;;;;;;;;4998010;28;20192;-82
2021/10/02 01:15:23;;;;;;;10.10;4.45;;;;;;;;;;4997402;28;20217;-82
2021/10/02 01:17:53;;;;;;;7.03;3.85;;;;;;;;;;4991934;28;20443;-82
2021/10/02 01:20:25;;;;;;;5.10;3.97;;;;;;;;;;4997714;28;20270;-82
2021/10/02 01:23:01;;;;;;;5.28;4.50;;;;;;;;;;5001248;28;20234;-82
2021/10/02 01:25:33;;;;;;;6.65;4.30;;;;;;;;;;4998530;28;20175;-81
2021/10/02 01:28:09;;;;;;;5.32;3.40;;;;;;;;;;5002817;28;20262;-82
2021/10/02 01:34:06;;;;;;;7.25;3.95;;;;;;;;;;4992603;28;20198;-82
2021/10/02 01:47:15;;;;;;;6.97;3.50;;;;;;;;;;4997595;28;20239;-81
2021/10/02 01:49:43;;;;;;;5.30;3.88;;;;;;;;;;5011407;28;20213;-82
2021/10/02 01:52:09;;;;;;;6.72;3.78;;;;;;;;;;4989952;28;20180;-81
2021/10/02 01:54:36;;;;;;;6.75;4.30;;;;;;;;;;5006472;28;20778;-82
2021/10/02 01:57:02;;;;;;;5.60;4.05;;;;;;;;;;4990515;28;20208;-82
2021/10/02 01:59:30;;;;;;;6.88;4.05;;;;;;;;;;4997338;28;20212;-82
2021/10/02 02:01:57;;;;;;;11.20;4.57;;;;;;;;;;5012121;28;20181;-83
2021/10/02 02:04:23;;;;;;;10.63;4.05;;;;;;;;;;4991622;28;20226;-82
2021/10/02 02:06:50;;;;;;;9.23;4.50;;;;;;;;;;4993519;28;20270;-82
2021/10/02 02:09:17;;;;;;;5.43;3.60;;;;;;;;;;4993213;28;20207;-82
2021/10/02 02:11:44;;;;;;;4.68;3.55;;;;;;;;;;4998960;28;20192;-81
2021/10/02 02:14:11;;;;;;;6.15;3.60;;;;;;;;;;4998135;28;20505;-82
2021/10/02 02:16:38;;;;;;;6.85;4.30;;;;;;;;;;4998870;28;20310;-81
2021/10/02 02:19:04;;;;;;;6.80;3.55;;;;;;;;;;4997719;28;20209;-81
2021/10/02 02:21:30;;;;;;;5.97;3.75;;;;;;;;;;4998892;28;20187;-82
2021/10/02 02:23:56;;;;;;;7.85;4.10;;;;;;;;;;4993009;28;20195;-81
2021/10/02 02:26:23;;;;;;;5.32;4.03;;;;;;;;;;5001117;28;20198;-81
2021/10/02 02:28:50;;;;;;;5.00;3.67;;;;;;;;;;5010563;28;20194;-82
2021/10/02 02:31:16;;;;;;;5.45;3.90;;;;;;;;;;5002266;28;20231;-82
2021/10/02 02:33:42;;;;;;;5.47;3.47;;;;;;;;;;5016608;28;20186;-82
2021/10/02 02:36:09;;;;;;;4.10;3.20;;;;;;;;;;5000199;28;20180;-82
2021/10/02 02:38:35;;;;;;;4.22;3.38;;;;;;;;;;4994165;28;20218;-82
2021/10/02 02:41:01;;;;;;;4.40;3.85;;;;;;;;;;5001123;28;20210;-81
2021/10/02 02:43:32;;;;;;;3.60;3.10;;;;;;;;;;4998840;28;20165;-81
2021/10/02 02:46:18;;;;;;;7.70;3.00;;;;;;;;;;4998483;28;20595;-81
2021/10/02 02:48:52;;;;;;;8.85;3.70;;;;;;;;;;4999329;28;20198;-81
2021/10/02 02:51:20;;;;;;;4.82;2.83;;;;;;;;;;4998610;28;20195;-81
2021/10/02 02:53:53;;;;;;;6.47;2.75;;;;;;;;;;4999961;28;20188;-81
2021/10/02 02:56:23;;;;;;;6.10;2.97;;;;;;;;;;4998754;28;20195;-81
2021/10/02 02:58:51;;;;;;;6.80;3.13;;;;;;;;;;4999393;28;20203;-81
2021/10/02 03:01:18;;;;;;;3.45;3.15;;;;;;;;;;5001672;28;20176;-80
2021/10/02 03:03:44;;;;;;;5.07;3.25;;;;;;;;;;5001464;28;20187;-81
2021/10/02 03:06:12;;;;;;;3.75;3.03;;;;;;;;;;5000731;28;20261;-81
2021/10/02 03:08:40;;;;;;;3.55;3.25;;;;;;;;;;5004450;28;20201;-81
2021/10/02 03:11:06;;;;;;;6.43;3.33;;;;;;;;;;5001637;28;20191;-81
2021/10/02 03:13:34;;;;;;;6.95;3.50;;;;;;;;;;5015767;28;20167;-81
2021/10/02 03:16:02;;;;;;;4.07;2.80;;;;;;;;;;5001752;28;20235;-82
2021/10/02 03:18:28;;;;;;;5.10;3.05;;;;;;;;;;4998384;28;20282;-82
2021/10/02 03:20:57;;;;;;;5.15;3.05;;;;;;;;;;4993705;28;20243;-82
2021/10/02 03:23:24;;;;;;;6.10;3.15;;;;;;;;;;5006976;28;20179;-82
2021/10/02 03:25:50;;;;;;;7.85;3.90;;;;;;;;;;5009005;28;20192;-82
2021/10/02 03:28:16;;;;;;;7.10;3.40;;;;;;;;;;5001141;28;20234;-82
2021/10/02 03:30:42;;;;;;;4.43;3.13;;;;;;;;;;5015597;28;20207;-82
2021/10/02 03:33:09;;;;;;;15.77;4.82;;;;;;;;;;4998340;28;20175;-81
2021/10/02 03:35:35;;;;;;;8.00;3.55;;;;;;;;;;5000102;28;20633;-81
2021/10/02 03:38:01;;;;;;;3.95;3.40;;;;;;;;;;5003054;28;20183;-82
2021/10/02 03:40:27;;;;;;;7.38;3.70;;;;;;;;;;4998255;28;20203;-82
2021/10/02 03:42:55;;;;;;;6.20;3.75;;;;;;;;;;4997886;28;20180;-82
2021/10/02 03:45:22;;;;;;;5.00;3.50;;;;;;;;;;4996957;28;20246;-82
2021/10/02 03:47:48;;;;;;;5.85;3.00;;;;;;;;;;4997921;28;20180;-82
2021/10/02 03:50:14;;;;;;;7.27;3.83;;;;;;;;;;4999104;28;20266;-82
2021/10/02 03:52:40;;;;;;;8.02;3.80;;;;;;;;;;5003397;28;20448;-82
2021/10/02 03:55:07;;;;;;;6.47;3.60;;;;;;;;;;4996091;28;20190;-82
2021/10/02 03:57:33;;;;;;;4.80;3.38;;;;;;;;;;5003181;28;20217;-82
2021/10/02 03:59:59;;;;;;;4.83;3.17;;;;;;;;;;5004135;28;20235;-82
2021/10/02 04:02:25;;;;;;;4.95;3.65;;;;;;;;;;5001046;28;20848;-82
2021/10/02 04:04:51;;;;;;;10.53;4.47;;;;;;;;;;4998420;28;20256;-82
2021/10/02 04:07:17;;;;;;;4.82;4.32;;;;;;;;;;5002179;28;20446;-82
2021/10/02 04:09:44;;;;;;;6.00;3.83;;;;;;;;;;5000308;28;20191;-81
2021/10/02 04:12:10;;;;;;;9.50;4.60;;;;;;;;;;4998545;28;20453;-81
2021/10/02 04:14:36;;;;;;;4.70;4.27;;;;;;;;;;5001161;28;20188;-81
2021/10/02 04:17:02;;;;;;;7.03;4.65;;;;;;;;;;4999985;28;20478;-82
2021/10/02 04:19:28;;;;;;;6.70;4.13;;;;;;;;;;5000884;28;20227;-82
2021/10/02 04:21:54;;;;;;;5.20;3.88;;;;;;;;;;4999127;28;20168;-82
2021/10/02 04:24:22;;;;;;;6.97;4.55;;;;;;;;;;4997327;28;20210;-83
2021/10/02 04:26:48;;;;;;;6.88;3.58;;;;;;;;;;4999129;28;20192;-81
2021/10/02 04:29:14;;;;;;;7.38;4.60;;;;;;;;;;5000477;28;20280;-82
2021/10/02 04:31:40;;;;;;;5.05;4.55;;;;;;;;;;5003625;28;20183;-82
2021/10/02 04:34:06;;;;;;;6.13;4.87;;;;;;;;;;5000203;28;20562;-82
2021/10/02 04:36:33;;;;;;;8.23;4.93;;;;;;;;;;4996916;28;20434;-82
2021/10/02 04:38:59;;;;;;;8.82;5.40;;;;;;;;;;4997810;28;20462;-82
2021/10/02 04:41:25;;;;;;;6.03;4.30;;;;;;;;;;4998334;28;20673;-81
2021/10/02 04:43:51;;;;;;;5.10;3.80;;;;;;;;;;5001519;28;20210;-82
2021/10/02 04:46:18;;;;;;;6.47;4.17;;;;;;;;;;4999955;28;20479;-81
2021/10/02 04:48:44;;;;;;;6.30;3.83;;;;;;;;;;4998586;28;20410;-82
2021/10/02 04:51:10;;;;;;;5.15;4.65;;;;;;;;;;4999068;28;20181;-81
2021/10/02 04:53:37;;;;;;;7.30;4.30;;;;;;;;;;4998494;28;20199;-81
2021/10/02 04:56:06;;;;;;;7.72;4.68;;;;;;;;;;5000138;28;20194;-81
2021/10/02 04:58:32;;;;;;;6.45;4.30;;;;;;;;;;4998408;28;20182;-81
2021/10/02 05:00:58;;;;;;;5.68;4.57;;;;;;;;;;4998272;28;20210;-82
2021/10/02 05:03:25;;;;;;;13.55;4.53;;;;;;;;;;4998476;28;20199;-82
2021/10/02 05:05:51;;;;;;;5.57;5.07;;;;;;;;;;4999391;28;20242;-82
2021/10/02 05:08:18;;;;;;;5.60;4.70;;;;;;;;;;5000218;28;20196;-82
2021/10/02 05:10:44;;;;;;;7.68;4.28;;;;;;;;;;4996548;28;20204;-81
2021/10/02 05:13:10;;;;;;;6.95;5.32;;;;;;;;;;4996510;28;20178;-81
2021/10/02 05:15:36;;;;;;;5.63;5.03;;;;;;;;;;4997912;28;20194;-81
2021/10/02 05:18:02;;;;;;;5.75;4.55;;;;;;;;;;4999529;28;20214;-82
2021/10/02 05:20:31;;;;;;;11.63;5.20;;;;;;;;;;5001388;28;20217;-81
2021/10/02 05:22:57;;;;;;;7.85;5.13;;;;;;;;;;5001043;28;20251;-82
2021/10/02 05:25:24;;;;;;;6.60;4.70;;;;;;;;;;4998863;28;20179;-80
2021/10/02 05:27:50;;;;;;;6.25;4.53;;;;;;;;;;4994597;28;20553;-81
2021/10/02 05:30:16;;;;;;;6.87;5.30;;;;;;;;;;4992986;28;20200;-81
2021/10/02 05:32:42;;;;;;;4.72;4.22;;;;;;;;;;4996265;28;20466;-81
2021/10/02 05:35:08;;;;;;;7.00;5.57;;;;;;;;;;4993825;28;20210;-81
2021/10/02 05:37:35;;;;;;;7.45;4.65;;;;;;;;;;5002305;28;20190;-81
2021/10/02 05:40:01;;;;;;;7.20;4.68;;;;;;;;;;4999258;28;20214;-82
2021/10/02 05:42:27;;;;;;;7.32;5.45;;;;;;;;;;4995534;28;20543;-81
2021/10/02 05:44:53;;;;;;;7.50;5.32;;;;;;;;;;4989100;28;20188;-81
2021/10/02 05:47:19;;;;;;;8.03;4.40;;;;;;;;;;5015645;28;20263;-81
2021/10/02 05:49:45;;;;;;;6.82;4.53;;;;;;;;;;4996693;28;20455;-81
2021/10/02 05:52:12;;;;;;;6.50;4.20;;;;;;;;;;5013605;28;20187;-81
2021/10/02 05:54:38;;;;;;;6.47;4.38;;;;;;;;;;4996808;28;20443;-81
2021/10/02 05:57:04;;;;;;;8.02;4.43;;;;;;;;;;4994535;28;20187;-81
2021/10/02 05:59:31;;;;;;;4.25;3.33;;;;;;;;;;5000401;28;20212;-82
2021/10/02 06:01:57;;;;;;;9.40;3.88;;;;;;;;;;4999311;28;20188;-81
2021/10/02 06:04:23;;;;;;;8.23;3.40;;;;;;;;;;4997110;28;20273;-81
2021/10/02 06:06:50;;;;;;;8.15;3.42;;;;;;;;;;4999475;28;20804;-81
2021/10/02 06:09:16;;;;;;;8.45;3.10;;;;;;;;;;4991938;28;20223;-81
2021/10/02 06:11:42;;;;;;;6.68;3.25;;;;;;;;;;5001333;28;20207;-82
2021/10/02 06:14:08;;;;;;;3.00;2.30;;;;;;;;;;5000634;28;20187;-82
2021/10/02 06:16:38;;;;;;;7.73;2.70;;;;;;;;;;5000422;28;20870;-81
2021/10/02 06:19:04;;;;;;;3.17;2.80;;;;;;;;;;4998298;28;20472;-81
2021/10/02 06:21:30;;;;;;;4.03;2.70;;;;;;;;;;4997868;28;20178;-81
2021/10/02 06:23:58;;;;;;;7.67;3.57;;;;;;;;;;4995559;28;20255;-82
2021/10/02 06:26:28;;;;;;;4.57;2.70;;;;;;;;;;4999883;28;20438;-82
2021/10/02 06:28:54;;;;;;;10.05;3.33;;;;;;;;;;5007809;28;20195;-81
2021/10/02 06:31:20;;;;;;;7.07;3.47;;;;;;;;;;5002762;28;20204;-80
2021/10/02 06:33:46;;;;;;;5.10;2.40;;;;;;;;;;4993698;28;20245;-81
2021/10/02 06:36:12;;;;;;;6.57;2.73;;;;;;;;;;4998117;28;20627;-81
2021/10/02 06:38:39;;;;;;;6.65;2.67;;;;;;;;;;4997279;28;20498;-81
2021/10/02 06:41:05;;;;;;;12.48;2.45;;;;;;;;;;4999780;28;20182;-81
2021/10/02 06:43:31;;;;;;;6.20;2.67;;;;;;;;;;4998216;28;20176;-81
2021/10/02 06:45:57;;;;;;;5.03;2.70;;;;;;;;;;5000001;28;20833;-82
2021/10/02 06:48:23;;;;;;;12.85;2.30;;;;;;;;;;4994656;28;20206;-82
2021/10/02 06:50:49;;;;;;;6.90;2.65;;;;;;;;;;4989924;28;20260;-81
2021/10/02 06:53:15;;;;;;;6.25;2.25;;;;;;;;;;4992806;28;20191;-82
2021/10/02 06:55:41;;;;;;;6.78;2.40;;;;;;;;;;4996995;28;20189;-82
2021/10/02 06:58:07;;;;;;;7.50;2.35;;;;;;;;;;4997785;28;20371;-81
2021/10/02 07:00:34;;;;;;;5.47;2.30;;;;;;;;;;4996869;28;20349;-81
2021/10/02 07:03:00;;;;;;;8.85;2.10;;;;;;;;;;4997743;28;20198;-82
2021/10/02 07:05:26;;;;;;;4.32;1.90;;;;;;;;;;5000201;28;20183;-83
2021/10/02 07:07:52;;;;;;;6.13;2.00;;;;;;;;;;5000414;28;20184;-83
2021/10/02 07:10:20;;;;;;;6.30;1.95;;;;;;;;;;4998391;28;20190;-83
2021/10/02 07:12:47;;;;;;;12.07;2.10;;;;;;;;;;4996573;28;20222;-82
2021/10/02 07:15:13;;;;;;;12.43;2.78;;;;;;;;;;4996647;28;20191;-81
2021/10/02 07:17:40;;;;;;;6.40;2.30;;;;;;;;;;5001728;28;20232;-81
2021/10/02 07:20:06;;;;;;;7.53;2.20;;;;;;;;;;5000479;28;20977;-81
2021/10/02 07:22:35;;;;;;;7.13;2.67;;;;;;;;;;5003327;28;20210;-81
2021/10/02 07:25:02;;;;;;;7.32;2.53;;;;;;;;;;5003278;28;20215;-82
2021/10/02 07:27:28;;;;;;;6.95;2.65;;;;;;;;;;5002695;28;20268;-82
2021/10/02 07:29:54;;;;;;;8.33;3.10;;;;;;;;;;5002271;28;20196;-82
2021/10/02 07:32:20;;;;;;;6.87;2.57;;;;;;;;;;4992681;28;20480;-81
2021/10/02 07:34:46;;;;;;;6.88;2.63;;;;;;;;;;5002383;28;20446;-81
2021/10/02 07:37:12;;;;;;;7.35;3.00;;;;;;;;;;5002503;28;20176;-80
2021/10/02 07:39:38;;;;;;;14.13;2.70;;;;;;;;;;4995319;28;20824;-81
2021/10/02 07:42:04;;;;;;;10.30;3.20;;;;;;;;;;5000481;28;20467;-82
2021/10/02 07:44:32;;;;;;;9.55;3.25;;;;;;;;;;4993721;28;20466;-83
2021/10/02 07:46:58;;;;;;;6.57;2.58;;;;;;;;;;5000517;28;20190;-82
2021/10/02 07:49:27;;;;;;;6.28;2.85;;;;;;;;;;5002996;28;20194;-82
2021/10/02 07:51:53;;;;;;;6.60;3.05;;;;;;;;;;5010340;28;20233;-82
2021/10/02 07:54:19;;;;;;;6.95;2.45;;;;;;;;;;5005437;28;20201;-82
2021/10/02 07:56:45;;;;;;;8.68;2.45;;;;;;;;;;4995532;28;20193;-82
2021/10/02 07:59:12;;;;;;;8.88;2.53;;;;;;;;;;5001894;28;20209;-83
2021/10/02 08:01:38;;;;;;;6.55;2.17;;;;;;;;;;4999340;28;20193;-80
2021/10/02 08:04:05;;;;;;;5.43;2.65;;;;;;;;;;4997976;28;20177;-82
2021/10/02 08:06:31;;;;;;;7.53;2.60;;;;;;;;;;5002869;28;20209;-81
2021/10/02 08:08:57;;;;;;;8.80;2.35;;;;;;;;;;5000794;28;20179;-83
2021/10/02 08:11:24;;;;;;;13.93;2.83;;;;;;;;;;4997246;28;20196;-83
2021/10/02 08:13:50;;;;;;;7.63;2.72;;;;;;;;;;5002289;28;20241;-82
2021/10/02 08:16:16;;;;;;;10.77;2.40;;;;;;;;;;4998912;28;20258;-83
2021/10/02 08:18:44;;;;;;;10.25;2.30;;;;;;;;;;5012436;28;20228;-82
2021/10/02 08:21:10;;;;;;;5.45;2.20;;;;;;;;;;5002229;28;20185;-82
2021/10/02 08:23:39;;;;;;;11.57;2.53;;;;;;;;;;4999968;28;20213;-82
2021/10/02 08:26:06;;;;;;;6.25;2.40;;;;;;;;;;4995433;28;20191;-83
2021/10/02 08:28:33;;;;;;;12.80;3.20;;;;;;;;;;4999902;28;20219;-81
2021/10/02 08:31:03;;;;;;;9.73;2.65;;;;;;;;;;4995780;28;20241;-84
2021/10/02 08:33:29;;;;;;;6.82;2.42;;;;;;;;;;4997543;28;20213;-82
2021/10/02 08:35:56;;;;;;;8.43;2.60;;;;;;;;;;5005959;28;20189;-83
2021/10/02 08:38:22;;;;;;;10.63;3.33;;;;;;;;;;5002413;28;20193;-82
2021/10/02 08:40:49;;;;;;;9.23;2.83;;;;;;;;;;5007785;28;20318;-83
2021/10/02 08:43:16;;;;;;;4.13;2.15;;;;;;;;;;5005921;28;20174;-83
2021/10/02 08:45:42;;;;;;;4.80;2.25;;;;;;;;;;5016160;28;20181;-85
2021/10/02 08:48:15;;;;;;;7.47;2.80;;;;;;;;;;4995524;28;20769;-83
2021/10/02 08:50:42;;;;;;;9.77;2.42;;;;;;;;;;5003631;28;20255;-83
2021/10/02 08:53:08;;;;;;;6.53;2.42;;;;;;;;;;4999995;28;20215;-82
2021/10/02 08:55:35;;;;;;;7.40;2.40;;;;;;;;;;4999261;28;20203;-84
2021/10/02 08:58:01;;;;;;;8.63;2.67;;;;;;;;;;4998468;28;20189;-82
2021/10/02 09:00:28;;;;;;;6.30;2.80;;;;;;;;;;4993271;28;20272;-83
2021/10/02 09:02:55;;;;;;;7.63;3.65;;;;;;;;;;4998555;28;20183;-83
2021/10/02 09:05:22;;;;;;;5.10;2.65;;;;;;;;;;5002701;28;20194;-83
2021/10/02 09:07:49;;;;;;;7.32;2.63;;;;;;;;;;4996657;28;20212;-83
2021/10/02 09:10:15;;;;;;;7.93;2.90;;;;;;;;;;4999725;28;20171;-85
2021/10/02 09:12:42;;;;;;;5.60;2.97;;;;;;;;;;5001315;28;20204;-84
2021/10/02 09:15:08;;;;;;;6.05;2.80;;;;;;;;;;4999002;28;20200;-84
2021/10/02 09:17:35;;;;;;;5.68;2.85;;;;;;;;;;4998916;28;20298;-82
2021/10/02 09:20:01;;;;;;;12.07;3.08;;;;;;;;;;4991870;28;20248;-84
2021/10/02 09:22:27;;;;;;;3.20;2.20;;;;;;;;;;5001238;28;20257;-83
2021/10/02 09:24:55;;;;;;;5.45;3.00;;;;;;;;;;4995011;28;20187;-84
2021/10/02 09:27:28;;;;;;;6.13;3.30;;;;;;;;;;4993541;28;20529;-82
2021/10/02 09:29:57;;;;;;;7.88;2.80;;;;;;;;;;4995731;28;20195;-84
2021/10/02 09:32:27;;;;;;;6.65;2.20;;;;;;;;;;5000647;28;20186;-85
2021/10/02 09:34:54;;;;;;;7.90;2.25;;;;;;;;;;5000050;28;20195;-85
2021/10/02 09:37:31;;;;;;;7.45;2.05;;;;;;;;;;4995707;28;20730;-83
2021/10/02 09:40:01;;;;;;;4.03;2.30;;;;;;;;;;5001243;28;20214;-84
2021/10/02 09:42:35;;;;;;;6.03;3.10;;;;;;;;;;4999999;28;20189;-84
2021/10/02 09:45:03;;;;;;;4.40;2.20;;;;;;;;;;4998301;28;20211;-84
2021/10/02 09:47:29;;;;;;;7.78;2.55;;;;;;;;;;5000391;28;20187;-85
2021/10/02 09:49:55;;;;;;;4.83;2.40;;;;;;;;;;4998325;28;20254;-86
2021/10/02 09:52:29;;;;;;;6.80;2.22;;;;;;;;;;5007466;28;20784;-86
2021/10/02 09:54:55;;;;;;;3.85;1.77;;;;;;;;;;4998462;28;20183;-85
2021/10/02 09:57:22;;;;;;;6.93;2.40;;;;;;;;;;4991175;28;20194;-87
2021/10/02 09:59:50;;;;;;;6.45;2.10;;;;;;;;;;4990565;28;20227;-86
2021/10/02 10:02:17;;;;;;;7.20;2.58;;;;;;;;;;5001767;28;20201;-87
2021/10/02 10:04:50;;;;;;;3.05;1.50;;;;;;;;;;5014283;28;20193;-88
2021/10/02 10:07:16;;;;;;;3.65;1.52;;;;;;;;;;4999088;28;20167;-90
2021/10/02 10:09:42;;;;;;;4.43;1.85;;;;;;;;;;4990660;28;20186;-92
2021/10/02 10:12:09;;;;;;;4.18;2.03;;;;;;;;;;5002546;28;20263;-86
2021/10/02 10:14:36;;;;;;;7.72;2.13;;;;;;;;;;4990685;28;20250;-90
2021/10/02 10:17:08;;;;;;;5.05;2.00;;;;;;;;;;5000365;28;20234;-87
2021/10/02 10:19:34;;;;;;;8.00;2.15;;;;;;;;;;4996071;28;20205;-87
2021/10/02 10:22:04;;;;;;;2.43;1.80;;;;;;;;;;5002021;28;20176;-91
2021/10/02 10:24:30;;;;;;;6.50;2.35;;;;;;;;;;4995664;28;20441;-88
2021/10/02 10:26:56;;;;;;;4.75;1.50;;;;;;;;;;4996010;28;20193;-89
2021/10/02 10:29:22;;;;;;;6.00;1.83;;;;;;;;;;4991997;28;20195;-88
2021/10/02 10:31:58;;;;;;;4.83;2.43;;;;;;;;;;5001603;28;20445;-89
2021/10/02 10:34:24;;;;;;;5.45;1.65;;;;;;;;;;4991625;28;20427;-86
2021/10/02 10:36:50;;;;;;;5.20;1.92;;;;;;;;;;4998861;28;20188;-89
2021/10/02 10:39:16;;;;;;;3.43;1.40;;;;;;;;;;4992836;28;20472;-88
2021/10/02 10:41:42;;;;;;;5.83;2.00;;;;;;;;;;4998898;28;20434;-86
2021/10/02 10:44:09;;;;;;;4.43;2.60;;;;;;;;;;4998605;28;20493;-85
2021/10/02 10:46:36;;;;;;;3.88;2.35;;;;;;;;;;5000024;28;20506;-90
2021/10/02 10:49:03;;;;;;;5.45;2.30;;;;;;;;;;5016877;28;20206;-84
2021/10/02 10:51:30;;;;;;;6.35;3.10;;;;;;;;;;5004040;28;20178;-89
2021/10/02 10:53:56;;;;;;;5.60;2.60;;;;;;;;;;5005332;28;20195;-89
2021/10/02 10:56:42;;;;;;;2.60;2.00;;;;;;;;;;4999363;28;20516;-87
2021/10/02 10:59:08;;;;;;;2.65;1.75;;;;;;;;;;5001335;28;20297;-88
2021/10/02 11:01:35;;;;;;;3.85;1.70;;;;;;;;;;5003653;28;20182;-85
2021/10/02 11:04:01;;;;;;;4.68;1.75;;;;;;;;;;5005232;28;20182;-85
2021/10/02 11:06:57;;;;;;;2.10;1.35;;;;;;;;;;4998862;28;20216;-89
2021/10/02 11:09:39;;;;;;;3.15;1.92;;;;;;;;;;4987219;28;20229;-88
2021/10/02 11:12:15;;;;;;;6.57;1.95;;;;;;;;;;5015604;28;20203;-87
2021/10/02 11:14:47;;;;;;;4.05;2.05;;;;;;;;;;5004411;28;20183;-90
2021/10/02 11:17:32;;;;;;;5.25;1.77;;;;;;;;;;4999342;28;20227;-88
2021/10/02 11:19:59;;;;;;;3.67;1.80;;;;;;;;;;4999622;28;20216;-89
2021/10/02 11:22:49;;;;;;;5.03;2.05;;;;;;;;;;4997617;28;20208;-85
2021/10/02 11:25:19;;;;;;;4.68;1.50;;;;;;;;;;4998623;28;20246;-89
2021/10/02 11:27:45;;;;;;;3.72;1.52;;;;;;;;;;4994858;28;20237;-88
2021/10/02 11:30:12;;;;;;;5.22;1.70;;;;;;;;;;5004619;28;20572;-83
2021/10/02 11:32:38;;;;;;;6.47;2.08;;;;;;;;;;4999743;28;20246;-89
2021/10/02 11:35:22;;;;;;;3.75;1.90;;;;;;;;;;5002423;28;20187;-90
2021/10/02 11:37:48;;;;;;;3.38;1.80;;;;;;;;;;5001997;28;20746;-89
2021/10/02 11:40:33;;;;;;;9.77;3.30;;;;;;;;;;5003156;28;20243;-92
2021/10/02 11:43:18;;;;;;;6.07;2.58;;;;;;;;;;4998885;28;20242;-84
2021/10/02 11:45:44;;;;;;;4.53;2.10;;;;;;;;;;5001890;28;20529;-88
2021/10/02 11:48:14;;;;;;;3.37;1.80;;;;;;;;;;4995083;28;20187;-92
2021/10/02 11:50:41;;;;;;;4.07;1.70;;;;;;;;;;5001047;28;20463;-91
2021/10/02 11:53:07;;;;;;;3.55;1.73;;;;;;;;;;5000639;28;20800;-82
2021/10/02 11:55:36;;;;;;;2.00;1.60;;;;;;;;;;5000036;28;20209;-87
2021/10/02 11:58:10;;;;;;;3.22;1.90;;;;;;;;;;5000790;28;20434;-88
2021/10/02 12:00:40;;;;;;;5.22;2.10;;;;;;;;;;4992533;28;20547;-87
2021/10/02 12:03:06;;;;;;;4.05;2.25;;;;;;;;;;5001291;28;20191;-87
2021/10/02 12:05:33;;;;;;;3.85;1.92;;;;;;;;;;4994871;28;20250;-88
2021/10/02 12:07:59;;;;;;;5.60;1.90;;;;;;;;;;5001292;28;20644;-90
2021/10/02 12:10:26;;;;;;;4.57;1.80;;;;;;;;;;5007932;28;20182;-87
2021/10/02 12:12:52;;;;;;;5.88;2.10;;;;;;;;;;4997031;28;20187;-92
2021/10/02 12:15:31;;;;;;;5.57;2.45;;;;;;;;;;4993576;28;20239;-89
2021/10/02 12:17:57;;;;;;;4.20;2.13;;;;;;;;;;4981350;28;20566;-90
2021/10/02 12:20:39;;;;;;;3.00;2.17;;;;;;;;;;4979611;28;20228;-89
2021/10/02 12:23:06;;;;;;;3.47;1.98;;;;;;;;;;4968496;28;20463;-90
2021/10/02 12:25:32;;;;;;;4.15;1.50;;;;;;;;;;4970288;28;20183;-89
2021/10/02 12:27:58;;;;;;;2.75;2.05;;;;;;;;;;4984276;28;20188;-90
2021/10/02 12:30:25;;;;;;;5.82;1.90;;;;;;;;;;4978173;28;20629;-85
2021/10/02 12:32:57;;;;;;;2.90;1.77;;;;;;;;;;4980268;28;20211;-91
2021/10/02 12:35:24;;;;;;;2.67;1.63;;;;;;;;;;4982294;28;20198;-89
2021/10/02 12:37:51;;;;;;;2.17;1.50;;;;;;;;;;4971436;28;20188;-91
2021/10/02 12:40:17;;;;;;;3.70;1.50;;;;;;;;;;4982120;28;20640;-87
2021/10/02 12:42:48;;;;;;;3.75;1.90;;;;;;;;;;4976372;28;20198;-89
2021/10/02 12:45:17;;;;;;;4.13;1.52;;;;;;;;;;4979089;28;20610;-90
2021/10/02 12:47:47;;;;;;;2.55;1.60;;;;;;;;;;4967484;28;20180;-91
2021/10/02 12:50:15;;;;;;;1.85;1.65;;;;;;;;;;4981005;28;20255;-89
2021/10/02 12:52:42;;;;;;;3.05;1.67;;;;;;;;;;4984244;28;20175;-92
2021/10/02 12:55:10;;;;;;;3.42;1.65;;;;;;;;;;4978438;28;20180;-87
2021/10/02 12:57:36;;;;;;;2.03;1.50;;;;;;;;;;4962541;28;20191;-91
2021/10/02 13:00:05;;;;;;;1.95;1.55;;;;;;;;;;4978781;28;20203;-86
2021/10/02 13:02:32;;;;;;;6.43;2.55;;;;;;;;;;4981551;28;20194;-88
2021/10/02 13:04:58;;;;;;;6.15;2.13;;;;;;;;;;4967153;28;20179;-89
2021/10/02 13:07:27;;;;;;;2.60;2.30;;;;;;;;;;4966106;28;20209;-88
2021/10/02 13:09:54;;;;;;;2.65;2.45;;;;;;;;;;4981559;28;20398;-86
2021/10/02 13:12:24;;;;;;;3.53;1.85;;;;;;;;;;4977031;28;20672;-88
2021/10/02 13:14:50;;;;;;;2.30;1.83;;;;;;;;;;4977477;28;20184;-87
2021/10/02 13:17:17;;;;;;;3.20;2.13;;;;;;;;;;4994262;28;20234;-89
2021/10/02 13:19:43;;;;;;;3.00;1.90;;;;;;;;;;4999678;28;20222;-88
2021/10/02 13:22:09;;;;;;;1.50;1.40;;;;;;;;;;4998436;28;20179;-88
2021/10/02 13:24:35;;;;;;;1.70;1.60;;;;;;;;;;5002684;28;20453;-87
2021/10/02 13:27:09;;;;;;;2.73;2.10;;;;;;;;;;4997251;28;20462;-85
2021/10/02 13:29:35;;;;;;;3.95;2.40;;;;;;;;;;5001082;28;20446;-89
2021/10/02 13:32:17;;;;;;;3.95;2.42;;;;;;;;;;4998656;28;20266;-89
2021/10/02 13:34:53;;;;;;;3.15;2.05;;;;;;;;;;5006534;28;20188;-88
2021/10/02 13:37:23;;;;;;;4.22;2.45;;;;;;;;;;5018066;28;20222;-85
2021/10/02 13:39:50;;;;;;;5.40;2.28;;;;;;;;;;5004208;28;20199;-88
2021/10/02 13:42:19;;;;;;;6.70;2.40;;;;;;;;;;5000645;28;20368;-86
2021/10/02 13:44:45;;;;;;;4.55;1.90;;;;;;;;;;5001623;28;20925;-85
2021/10/02 13:47:11;;;;;;;3.45;2.53;;;;;;;;;;5002280;28;20289;-88
2021/10/02 13:49:37;;;;;;;4.15;2.45;;;;;;;;;;4995924;28;20195;-88
2021/10/02 13:52:03;;;;;;;2.43;1.73;;;;;;;;;;4998910;28;20186;-86
2021/10/02 13:54:29;;;;;;;2.90;2.15;;;;;;;;;;4997202;28;20776;-86
2021/10/02 13:57:06;;;;;;;3.20;2.42;;;;;;;;;;4995970;28;20509;-85
2021/10/02 13:59:32;;;;;;;2.85;2.00;;;;;;;;;;4990285;28;20237;-85
2021/10/02 14:01:58;;;;;;;6.00;2.50;;;;;;;;;;5008205;28;20190;-85
2021/10/02 14:04:24;;;;;;;6.37;2.07;;;;;;;;;;4988993;28;20426;-84
2021/10/02 14:06:50;;;;;;;5.60;2.45;;;;;;;;;;5001843;28;20441;-84
2021/10/02 14:09:16;;;;;;;3.83;2.60;;;;;;;;;;4997342;28;20191;-87
2021/10/02 14:11:42;;;;;;;4.80;2.40;;;;;;;;;;5011248;28;20225;-87
2021/10/02 14:14:09;;;;;;;5.57;2.10;;;;;;;;;;5011157;28;20280;-85
2021/10/02 14:16:35;;;;;;;6.70;2.80;;;;;;;;;;4998702;28;20458;-86
2021/10/02 14:19:01;;;;;;;6.88;2.83;;;;;;;;;;4997308;28;20218;-90
2021/10/02 14:21:27;;;;;;;3.42;2.00;;;;;;;;;;4994909;28;20179;-82
2021/10/02 14:23:53;;;;;;;3.15;2.85;;;;;;;;;;4997736;28;20529;-84
2021/10/02 14:26:20;;;;;;;7.75;2.50;;;;;;;;;;5001966;28;20184;-84
2021/10/02 14:28:46;;;;;;;0.40;0.40;;;;;;;;;;5015340;28;20217;-85
2021/10/02 14:31:12;;;;;;;3.35;2.25;;;;;;;;;;4998593;28;20226;-84
2021/10/02 14:33:38;;;;;;;3.53;2.17;;;;;;;;;;5013248;28;20187;-85
2021/10/02 14:36:04;;;;;;;2.70;2.20;;;;;;;;;;5001128;28;20179;-85
2021/10/02 14:38:32;;;;;;;4.15;2.20;;;;;;;;;;5002866;28;20436;-84
2021/10/02 14:40:58;;;;;;;2.60;2.20;;;;;;;;;;5002187;28;20560;-82
2021/10/02 14:43:27;;;;;;;6.97;2.67;;;;;;;;;;5010299;28;20179;-83
2021/10/02 14:45:54;;;;;;;3.28;2.42;;;;;;;;;;5004174;28;20197;-83
2021/10/02 14:48:20;;;;;;;3.42;2.22;;;;;;;;;;5003404;28;20192;-86
2021/10/02 14:50:46;;;;;;;2.30;2.10;;;;;;;;;;4996906;28;20191;-86
2021/10/02 14:53:15;;;;;;;4.95;2.25;;;;;;;;;;5000842;28;20205;-85
2021/10/02 14:55:44;;;;;;;3.75;2.20;;;;;;;;;;5003284;28;20282;-86
2021/10/02 14:58:10;;;;;;;6.30;2.28;;;;;;;;;;5002596;28;20183;-85
2021/10/02 15:00:36;;;;;;;3.65;2.17;;;;;;;;;;4996798;28;20211;-87
2021/10/02 15:03:06;;;;;;;2.47;2.00;;;;;;;;;;5015923;28;20206;-85
2021/10/02 15:05:32;;;;;;;4.25;2.40;;;;;;;;;;5001714;28;20186;-85
2021/10/02 15:07:59;;;;;;;4.43;1.92;;;;;;;;;;5004315;28;20197;-85
2021/10/02 15:10:25;;;;;;;4.30;2.50;;;;;;;;;;5000556;28;20189;-84
2021/10/02 15:12:51;;;;;;;3.40;2.20;;;;;;;;;;5004623;28;20183;-87
2021/10/02 15:15:17;;;;;;;4.03;2.50;;;;;;;;;;4999249;28;20202;-83
2021/10/02 15:17:43;;;;;;;2.95;2.33;;;;;;;;;;5000584;28;20187;-83
2021/10/02 15:20:11;;;;;;;3.60;2.03;;;;;;;;;;5003666;28;20218;-83
2021/10/02 15:22:38;;;;;;;5.68;2.42;;;;;;;;;;5002030;28;20186;-83
2021/10/02 15:25:06;;;;;;;3.47;2.30;;;;;;;;;;5004847;28;20694;-83
2021/10/02 15:27:34;;;;;;;6.50;2.67;;;;;;;;;;5004701;28;20521;-86
2021/10/02 15:30:01;;;;;;;4.45;2.30;;;;;;;;;;5005219;28;20187;-86
2021/10/02 15:32:30;;;;;;;4.45;2.35;;;;;;;;;;4992331;28;20186;-84
2021/10/02 15:34:58;;;;;;;4.60;2.15;;;;;;;;;;4996518;28;20194;-85
2021/10/02 15:37:25;;;;;;;4.00;2.47;;;;;;;;;;5002482;28;20202;-83
2021/10/02 15:39:51;;;;;;;2.30;2.10;;;;;;;;;;5002238;28;20203;-89
2021/10/02 15:42:17;;;;;;;2.20;1.80;;;;;;;;;;4999601;28;20187;-84
2021/10/02 15:44:43;;;;;;;3.63;2.95;;;;;;;;;;4994270;28;20197;-83